Terminal Aerodrome Forecast
Issued by NWS

Home | Current Version | Previous Version | Text Only | Print | Product List | Glossary Off
Versions: 1 2 3 4 5 6 7 8 9 10 11 12 13 14 15 16

000
FTUS42 KMHX 191755 CCA
TAFPGV
TAF COR
KPGV 191755Z 1918/2018 18010G16KT 4SM -SHRA VCTS OVC020CB
      TEMPO 1918/1921 2SM +SHRA BKN008
     FM200000 17009KT P6SM VCSH SCT007 OVC015
     FM200300 20008KT P6SM SCT007 OVC025
     FM201500 22010G15KT P6SM SCT030 BKN040
      AMD LTD TO CLD VIS AND WIND=

USA.gov is the U.S. government's official web portal to all federal, state and local government web resources and services.